Terminal Aerodrome Forecast
Issued by NWS

Current Version | Previous Version | Graphics & Text | Print | Product List | Glossary On
Versions: 1 2 3 4 5 6 7 8 9 10 11 12 13 14 15 16 17 18 19 20 21 22 23 24 25 26 27 28 29 30 31 32 33 34 35
000
FTUS41 KRNK 260522
TAFLWB
TAF
KLWB 260522Z 2606/2706 00000KT P6SM BKN120
     FM260800 00000KT 2SM BR SCT001 BKN015
      TEMPO 2609/2612 1/4SM FG BKN001
     FM261330 25002KT P6SM SCT020 BKN100
     FM261800 27006KT P6SM VCTS BKN045CB OVC060
     FM270000 00000KT P6SM BKN100=

USA.gov is the U.S. government's official web portal to all federal, state and local government web resources and services.